Beverley, United Kingdom
Current Conditions -  °F | °C
As of 3:50 PM on Thursday 30 Oct 2014 (Local Time) from EGXV Reporting Station
Overcast Overcast  
Wind Chill: 61°   Ceiling: 4100
Heat Index: 61°   Visibility: 6mi
Dew Point: 59°   Wind: 7mph
Humidity: 94%   Direction: 200°SSW
Pressure: 29.97"   Gusts: NA
Location:  53.85°N, 0.44°W
Report Text: EGXV 301550Z AUTO 20006KT 9999 OVC041/// 16/15 Q1015
Loading
Personal Weather Stations






























Interactive Weather Map
Tropical Storm Tracking
New forecast layout! Learn more

10-Day Weather Forecast

Advertisements
Track Severe Weather on mobile